sensor_id;sensor_type;location;lat;lon;timestamp;pressure;altitude;pressure_sealevel;temperature;humidity
72855;BME280;60991;51.278;22.550;2023-08-01T00:00:02;98497.44;;;20.19;58.53
72855;BME280;60991;51.278;22.550;2023-08-01T00:01:32;98500.28;;;20.22;58.38
72855;BME280;60991;51.278;22.550;2023-08-01T00:03:03;98502.31;;;20.25;58.39
72855;BME280;60991;51.278;22.550;2023-08-01T00:04:33;98497.06;;;20.29;58.43
72855;BME280;60991;51.278;22.550;2023-08-01T00:06:03;98499.28;;;20.35;58.31
72855;BME280;60991;51.278;22.550;2023-08-01T00:07:33;98500.25;;;20.31;58.37
72855;BME280;60991;51.278;22.550;2023-08-01T00:09:03;98508.19;;;20.27;58.51
72855;BME280;60991;51.278;22.550;2023-08-01T00:10:34;98506.94;;;20.16;58.86
72855;BME280;60991;51.278;22.550;2023-08-01T00:12:04;98501.84;;;20.23;58.76
72855;BME280;60991;51.278;22.550;2023-08-01T00:13:35;98495.34;;;20.24;58.71
72855;BME280;60991;51.278;22.550;2023-08-01T00:15:05;98491.41;;;20.22;58.93
72855;BME280;60991;51.278;22.550;2023-08-01T00:16:36;98502.19;;;20.22;58.64
72855;BME280;60991;51.278;22.550;2023-08-01T00:18:06;98501.56;;;20.16;58.86
72855;BME280;60991;51.278;22.550;2023-08-01T00:19:36;98494.59;;;20.15;59.11
72855;BME280;60991;51.278;22.550;2023-08-01T00:21:07;98489.66;;;20.17;58.85
72855;BME280;60991;51.278;22.550;2023-08-01T00:22:37;98496.97;;;20.17;58.83
72855;BME280;60991;51.278;22.550;2023-08-01T00:24:07;98492.53;;;20.12;59.04
72855;BME280;60991;51.278;22.550;2023-08-01T00:25:38;98495.06;;;20.09;59.12
72855;BME280;60991;51.278;22.550;2023-08-01T00:27:08;98493.00;;;20.14;59.08
72855;BME280;60991;51.278;22.550;2023-08-01T00:28:38;98493.16;;;20.09;59.21
72855;BME280;60991;51.278;22.550;2023-08-01T00:30:09;98486.03;;;20.04;59.28
72855;BME280;60991;51.278;22.550;2023-08-01T00:31:39;98497.50;;;20.01;59.47
72855;BME280;60991;51.278;22.550;2023-08-01T00:33:09;98494.97;;;19.96;59.54
72855;BME280;60991;51.278;22.550;2023-08-01T00:34:40;98491.47;;;19.87;59.60
72855;BME280;60991;51.278;22.550;2023-08-01T00:36:10;98483.09;;;19.80;59.82
72855;BME280;60991;51.278;22.550;2023-08-01T00:37:40;98487.06;;;19.83;59.84
72855;BME280;60991;51.278;22.550;2023-08-01T00:39:10;98485.81;;;19.80;59.92
72855;BME280;60991;51.278;22.550;2023-08-01T00:40:40;98479.63;;;19.80;60.04
72855;BME280;60991;51.278;22.550;2023-08-01T00:42:11;98490.41;;;19.80;60.02
72855;BME280;60991;51.278;22.550;2023-08-01T00:43:41;98477.25;;;19.78;60.06
72855;BME280;60991;51.278;22.550;2023-08-01T00:45:11;98480.88;;;19.82;60.02
72855;BME280;60991;51.278;22.550;2023-08-01T00:46:41;98480.25;;;19.85;59.96
72855;BME280;60991;51.278;22.550;2023-08-01T00:48:12;98478.31;;;19.86;60.03
72855;BME280;60991;51.278;22.550;2023-08-01T00:49:42;98483.41;;;19.87;59.91
72855;BME280;60991;51.278;22.550;2023-08-01T00:51:12;98478.94;;;19.91;59.84
72855;BME280;60991;51.278;22.550;2023-08-01T00:52:43;98471.50;;;19.97;59.67
72855;BME280;60991;51.278;22.550;2023-08-01T00:54:13;98476.25;;;20.00;59.46
72855;BME280;60991;51.278;22.550;2023-08-01T00:55:44;98479.41;;;20.02;59.53
72855;BME280;60991;51.278;22.550;2023-08-01T00:57:15;98477.38;;;19.99;59.51
72855;BME280;60991;51.278;22.550;2023-08-01T00:58:45;98481.44;;;20.05;59.45
72855;BME280;60991;51.278;22.550;2023-08-01T01:00:15;98479.09;;;20.03;59.68
72855;BME280;60991;51.278;22.550;2023-08-01T01:01:46;98480.22;;;20.02;59.75
72855;BME280;60991;51.278;22.550;2023-08-01T01:03:16;98484.03;;;19.93;59.91
72855;BME280;60991;51.278;22.550;2023-08-01T01:04:46;98484.38;;;19.83;60.06
72855;BME280;60991;51.278;22.550;2023-08-01T01:07:54;98474.06;;;19.85;60.00
72855;BME280;60991;51.278;22.550;2023-08-01T01:09:24;98474.06;;;19.85;60.03
72855;BME280;60991;51.278;22.550;2023-08-01T01:10:57;98475.81;;;19.81;59.90
72855;BME280;60991;51.278;22.550;2023-08-01T01:12:28;98480.41;;;19.71;60.30
72855;BME280;60991;51.278;22.550;2023-08-01T01:13:58;98476.31;;;19.65;60.66
72855;BME280;60991;51.278;22.550;2023-08-01T01:15:28;98472.84;;;19.65;60.56
72855;BME280;60991;51.278;22.550;2023-08-01T01:16:58;98469.03;;;19.66;60.43
72855;BME280;60991;51.278;22.550;2023-08-01T01:18:28;98470.75;;;19.70;60.42
72855;BME280;60991;51.278;22.550;2023-08-01T01:19:59;98472.97;;;19.77;60.26
72855;BME280;60991;51.278;22.550;2023-08-01T01:21:29;98471.38;;;19.76;60.26
72855;BME280;60991;51.278;22.550;2023-08-01T01:23:00;98468.38;;;19.69;60.49
72855;BME280;60991;51.278;22.550;2023-08-01T01:24:32;98466.31;;;19.75;60.40
72855;BME280;60991;51.278;22.550;2023-08-01T01:26:04;98469.81;;;19.75;60.24
72855;BME280;60991;51.278;22.550;2023-08-01T01:27:37;98464.88;;;19.77;60.27
72855;BME280;60991;51.278;22.550;2023-08-01T01:29:09;98457.59;;;19.78;60.24
72855;BME280;60991;51.278;22.550;2023-08-01T01:30:41;98457.44;;;19.74;60.31
72855;BME280;60991;51.278;22.550;2023-08-01T01:32:12;98463.66;;;19.66;60.67
72855;BME280;60991;51.278;22.550;2023-08-01T01:33:43;98457.47;;;19.57;61.29
72855;BME280;60991;51.278;22.550;2023-08-01T01:35:14;98459.22;;;19.53;61.18
72855;BME280;60991;51.278;22.550;2023-08-01T01:36:44;98452.41;;;19.55;61.16
72855;BME280;60991;51.278;22.550;2023-08-01T01:38:15;98451.47;;;19.60;61.10
72855;BME280;60991;51.278;22.550;2023-08-01T01:39:45;98454.00;;;19.56;61.09
72855;BME280;60991;51.278;22.550;2023-08-01T01:41:15;98450.94;;;19.49;61.35
72855;BME280;60991;51.278;22.550;2023-08-01T01:42:45;98450.97;;;19.41;61.64
72855;BME280;60991;51.278;22.550;2023-08-01T01:44:16;98449.72;;;19.47;61.35
72855;BME280;60991;51.278;22.550;2023-08-01T01:45:46;98445.91;;;19.48;61.37
72855;BME280;60991;51.278;22.550;2023-08-01T01:47:17;98448.25;;;19.49;61.62
72855;BME280;60991;51.278;22.550;2023-08-01T01:48:47;98447.47;;;19.49;61.45
72855;BME280;60991;51.278;22.550;2023-08-01T01:50:18;98441.78;;;19.42;61.47
72855;BME280;60991;51.278;22.550;2023-08-01T01:51:48;98442.91;;;19.41;61.70
72855;BME280;60991;51.278;22.550;2023-08-01T01:53:18;98439.56;;;19.35;61.77
72855;BME280;60991;51.278;22.550;2023-08-01T01:54:48;98437.19;;;19.33;61.94
72855;BME280;60991;51.278;22.550;2023-08-01T01:56:19;98434.34;;;19.30;62.02
72855;BME280;60991;51.278;22.550;2023-08-01T01:57:49;98434.97;;;19.35;62.04
72855;BME280;60991;51.278;22.550;2023-08-01T01:59:19;98437.34;;;19.37;61.73
72855;BME280;60991;51.278;22.550;2023-08-01T02:00:49;98429.44;;;19.32;62.05
72855;BME280;60991;51.278;22.550;2023-08-01T02:02:19;98433.56;;;19.38;61.76
72855;BME280;60991;51.278;22.550;2023-08-01T02:03:50;98427.84;;;19.40;61.51
72855;BME280;60991;51.278;22.550;2023-08-01T02:05:20;98426.91;;;19.35;61.92
72855;BME280;60991;51.278;22.550;2023-08-01T02:06:50;98418.97;;;19.30;62.16
72855;BME280;60991;51.278;22.550;2023-08-01T02:08:20;98423.56;;;19.30;62.24
72855;BME280;60991;51.278;22.550;2023-08-01T02:09:50;98422.50;;;19.22;62.42
72855;BME280;60991;51.278;22.550;2023-08-01T02:11:21;98423.25;;;19.14;62.51
72855;BME280;60991;51.278;22.550;2023-08-01T02:12:51;98423.13;;;19.11;62.78
72855;BME280;60991;51.278;22.550;2023-08-01T02:14:21;98421.88;;;19.08;62.98
72855;BME280;60991;51.278;22.550;2023-08-01T02:15:51;98420.28;;;19.07;63.07
72855;BME280;60991;51.278;22.550;2023-08-01T02:17:21;98418.38;;;19.08;62.92
72855;BME280;60991;51.278;22.550;2023-08-01T02:18:52;98411.91;;;19.09;62.99
72855;BME280;60991;51.278;22.550;2023-08-01T02:20:22;98419.78;;;19.05;63.05
72855;BME280;60991;51.278;22.550;2023-08-01T02:21:53;98416.78;;;18.98;63.38
72855;BME280;60991;51.278;22.550;2023-08-01T02:23:24;98410.91;;;18.96;63.68
72855;BME280;60991;51.278;22.550;2023-08-01T02:24:54;98418.50;;;18.94;63.50
72855;BME280;60991;51.278;22.550;2023-08-01T02:26:24;98409.34;;;18.95;63.56
72855;BME280;60991;51.278;22.550;2023-08-01T02:27:55;98413.00;;;18.90;63.63
72855;BME280;60991;51.278;22.550;2023-08-01T02:29:25;98419.31;;;18.86;63.73
72855;BME280;60991;51.278;22.550;2023-08-01T02:30:55;98414.72;;;18.86;64.11
72855;BME280;60991;51.278;22.550;2023-08-01T02:32:25;98413.94;;;18.86;63.99
72855;BME280;60991;51.278;22.550;2023-08-01T02:33:55;98419.31;;;18.86;63.99
72855;BME280;60991;51.278;22.550;2023-08-01T02:35:26;98405.25;;;18.89;63.85
72855;BME280;60991;51.278;22.550;2023-08-01T02:36:56;98400.81;;;18.84;64.00
72855;BME280;60991;51.278;22.550;2023-08-01T02:38:26;98410.91;;;18.79;64.31
72855;BME280;60991;51.278;22.550;2023-08-01T02:39:56;98406.16;;;18.76;64.39
72855;BME280;60991;51.278;22.550;2023-08-01T02:41:26;98400.16;;;18.79;64.41
72855;BME280;60991;51.278;22.550;2023-08-01T02:42:57;98406.81;;;18.73;64.26
72855;BME280;60991;51.278;22.550;2023-08-01T02:44:27;98399.38;;;18.70;64.36
72855;BME280;60991;51.278;22.550;2023-08-01T02:45:57;98400.94;;;18.71;64.66
72855;BME280;60991;51.278;22.550;2023-08-01T02:47:27;98406.00;;;18.72;64.32
72855;BME280;60991;51.278;22.550;2023-08-01T02:48:58;98402.69;;;18.66;64.49
72855;BME280;60991;51.278;22.550;2023-08-01T02:50:28;98390.03;;;18.67;64.70
72855;BME280;60991;51.278;22.550;2023-08-01T02:51:58;98405.06;;;18.68;64.59
72855;BME280;60991;51.278;22.550;2023-08-01T02:53:28;98398.41;;;18.65;64.75
72855;BME280;60991;51.278;22.550;2023-08-01T02:54:58;98390.78;;;18.59;64.87
72855;BME280;60991;51.278;22.550;2023-08-01T02:56:29;98396.34;;;18.62;64.97
72855;BME280;60991;51.278;22.550;2023-08-01T02:57:59;98396.97;;;18.59;65.33
72855;BME280;60991;51.278;22.550;2023-08-01T02:59:29;98393.97;;;18.61;64.97
72855;BME280;60991;51.278;22.550;2023-08-01T03:00:59;98389.69;;;18.60;65.01
72855;BME280;60991;51.278;22.550;2023-08-01T03:02:29;98389.06;;;18.63;64.96
72855;BME280;60991;51.278;22.550;2023-08-01T03:04:00;98396.16;;;18.59;64.98
72855;BME280;60991;51.278;22.550;2023-08-01T03:05:30;98391.88;;;18.58;64.87
72855;BME280;60991;51.278;22.550;2023-08-01T03:07:00;98388.38;;;18.57;65.04
72855;BME280;60991;51.278;22.550;2023-08-01T03:08:30;98381.13;;;18.58;65.19
72855;BME280;60991;51.278;22.550;2023-08-01T03:10:01;98373.56;;;18.60;64.85
72855;BME280;60991;51.278;22.550;2023-08-01T03:11:31;98377.53;;;18.62;64.78
72855;BME280;60991;51.278;22.550;2023-08-01T03:13:02;98371.34;;;18.62;65.02
72855;BME280;60991;51.278;22.550;2023-08-01T03:14:32;98380.84;;;18.59;65.18
72855;BME280;60991;51.278;22.550;2023-08-01T03:16:02;98375.16;;;18.61;64.90
72855;BME280;60991;51.278;22.550;2023-08-01T03:17:32;98379.28;;;18.67;64.71
72855;BME280;60991;51.278;22.550;2023-08-01T03:19:03;98377.84;;;18.70;64.53
72855;BME280;60991;51.278;22.550;2023-08-01T03:20:33;98371.69;;;18.69;64.45
72855;BME280;60991;51.278;22.550;2023-08-01T03:22:04;98377.84;;;18.70;64.64
72855;BME280;60991;51.278;22.550;2023-08-01T03:23:34;98372.63;;;18.64;64.88
72855;BME280;60991;51.278;22.550;2023-08-01T03:25:05;98375.00;;;18.66;64.72
72855;BME280;60991;51.278;22.550;2023-08-01T03:26:36;98368.19;;;18.60;64.76
72855;BME280;60991;51.278;22.550;2023-08-01T03:28:06;98367.56;;;18.63;64.70
72855;BME280;60991;51.278;22.550;2023-08-01T03:29:36;98366.56;;;18.50;65.17
72855;BME280;60991;51.278;22.550;2023-08-01T03:31:06;98373.22;;;18.53;65.18
72855;BME280;60991;51.278;22.550;2023-08-01T03:32:37;98366.56;;;18.50;65.20
72855;BME280;60991;51.278;22.550;2023-08-01T03:34:07;98365.31;;;18.48;65.36
72855;BME280;60991;51.278;22.550;2023-08-01T03:35:37;98367.38;;;18.51;65.16
72855;BME280;60991;51.278;22.550;2023-08-01T03:37:07;98365.63;;;18.46;65.25
72855;BME280;60991;51.278;22.550;2023-08-01T03:38:37;98363.25;;;18.45;65.54
72855;BME280;60991;51.278;22.550;2023-08-01T03:40:08;98361.34;;;18.45;65.52
72855;BME280;60991;51.278;22.550;2023-08-01T03:41:38;98360.41;;;18.50;65.33
72855;BME280;60991;51.278;22.550;2023-08-01T03:43:08;98363.25;;;18.53;65.28
72855;BME280;60991;51.278;22.550;2023-08-01T03:44:38;98358.81;;;18.57;64.93
72855;BME280;60991;51.278;22.550;2023-08-01T03:46:09;98358.69;;;18.54;65.27
72855;BME280;60991;51.278;22.550;2023-08-01T03:47:39;98355.34;;;18.57;64.84
72855;BME280;60991;51.278;22.550;2023-08-01T03:49:09;98355.84;;;18.59;65.13
72855;BME280;60991;51.278;22.550;2023-08-01T03:50:39;98357.88;;;18.53;65.03
72855;BME280;60991;51.278;22.550;2023-08-01T03:52:10;98362.94;;;18.55;65.21
72855;BME280;60991;51.278;22.550;2023-08-01T03:53:40;98353.31;;;18.54;65.34
72855;BME280;60991;51.278;22.550;2023-08-01T03:55:10;98348.44;;;18.64;64.95
72855;BME280;60991;51.278;22.550;2023-08-01T03:56:41;98351.28;;;18.68;64.58
72855;BME280;60991;51.278;22.550;2023-08-01T03:58:11;98347.34;;;18.65;64.87
72855;BME280;60991;51.278;22.550;2023-08-01T03:59:41;98352.41;;;18.67;64.50
72855;BME280;60991;51.278;22.550;2023-08-01T04:01:11;98344.97;;;18.73;64.39
72855;BME280;60991;51.278;22.550;2023-08-01T04:02:42;98348.28;;;18.70;64.68
72855;BME280;60991;51.278;22.550;2023-08-01T04:04:12;98345.59;;;18.70;64.68
72855;BME280;60991;51.278;22.550;2023-08-01T04:05:43;98343.53;;;18.75;64.35
72855;BME280;60991;51.278;22.550;2023-08-01T04:07:13;98341.31;;;18.77;64.21
72855;BME280;60991;51.278;22.550;2023-08-01T04:08:43;98342.09;;;18.78;64.44
72855;BME280;60991;51.278;22.550;2023-08-01T04:10:13;98344.63;;;18.74;64.31
72855;BME280;60991;51.278;22.550;2023-08-01T04:11:43;98346.06;;;18.80;64.33
72855;BME280;60991;51.278;22.550;2023-08-01T04:13:13;98346.22;;;18.84;64.30
72855;BME280;60991;51.278;22.550;2023-08-01T04:14:44;98340.69;;;18.80;64.27
72855;BME280;60991;51.278;22.550;2023-08-01T04:16:14;98347.00;;;18.76;64.52
72855;BME280;60991;51.278;22.550;2023-08-01T04:17:44;98343.88;;;18.74;64.49
72855;BME280;60991;51.278;22.550;2023-08-01T04:19:14;98345.59;;;18.78;64.47
72855;BME280;60991;51.278;22.550;2023-08-01T04:20:45;98342.44;;;18.85;64.53
72855;BME280;60991;51.278;22.550;2023-08-01T04:22:16;98341.63;;;18.93;63.82
72855;BME280;60991;51.278;22.550;2023-08-01T04:23:46;98338.63;;;18.94;64.18
72855;BME280;60991;51.278;22.550;2023-08-01T04:25:16;98338.00;;;18.97;63.79
72855;BME280;60991;51.278;22.550;2023-08-01T04:26:46;98332.94;;;19.05;63.46
72855;BME280;60991;51.278;22.550;2023-08-01T04:28:17;98331.19;;;19.09;63.33
72855;BME280;60991;51.278;22.550;2023-08-01T04:29:47;98318.53;;;19.09;63.43
72855;BME280;60991;51.278;22.550;2023-08-01T04:31:18;98325.47;;;19.19;63.14
72855;BME280;60991;51.278;22.550;2023-08-01T04:32:48;98318.34;;;19.23;62.66
72855;BME280;60991;51.278;22.550;2023-08-01T04:34:18;98319.28;;;19.18;62.91
72855;BME280;60991;51.278;22.550;2023-08-01T04:35:48;98322.31;;;19.17;62.77
72855;BME280;60991;51.278;22.550;2023-08-01T04:37:19;98315.81;;;19.26;62.58
72855;BME280;60991;51.278;22.550;2023-08-01T04:38:49;98315.00;;;19.26;62.56
72855;BME280;60991;51.278;22.550;2023-08-01T04:40:19;98311.69;;;19.29;62.66
72855;BME280;60991;51.278;22.550;2023-08-01T04:41:49;98315.94;;;19.30;62.54
72855;BME280;60991;51.278;22.550;2023-08-01T04:43:19;98315.94;;;19.30;62.62
72855;BME280;60991;51.278;22.550;2023-08-01T04:44:49;98309.44;;;19.31;62.54
72855;BME280;60991;51.278;22.550;2023-08-01T04:46:20;98318.63;;;19.38;61.94
72855;BME280;60991;51.278;22.550;2023-08-01T04:47:50;98320.81;;;19.45;61.82
72855;BME280;60991;51.278;22.550;2023-08-01T04:49:20;98323.38;;;19.42;62.05
72855;BME280;60991;51.278;22.550;2023-08-01T04:50:50;98324.31;;;19.46;61.93
72855;BME280;60991;51.278;22.550;2023-08-01T04:52:20;98323.19;;;19.55;61.45
72855;BME280;60991;51.278;22.550;2023-08-01T04:53:51;98322.22;;;19.60;61.46
72855;BME280;60991;51.278;22.550;2023-08-01T04:55:21;98322.53;;;19.58;61.52
72855;BME280;60991;51.278;22.550;2023-08-01T04:56:52;98313.03;;;19.61;61.44
72855;BME280;60991;51.278;22.550;2023-08-01T04:58:22;98315.09;;;19.55;61.44
72855;BME280;60991;51.278;22.550;2023-08-01T04:59:52;98313.66;;;19.49;61.66
72855;BME280;60991;51.278;22.550;2023-08-01T05:01:22;98306.53;;;19.62;61.32
72855;BME280;60991;51.278;22.550;2023-08-01T05:02:52;98308.13;;;19.63;61.42
72855;BME280;60991;51.278;22.550;2023-08-01T05:04:23;98312.72;;;19.62;61.79
72855;BME280;60991;51.278;22.550;2023-08-01T05:05:54;98311.47;;;19.60;62.05
72855;BME280;60991;51.278;22.550;2023-08-01T05:07:24;98304.13;;;19.69;61.47
72855;BME280;60991;51.278;22.550;2023-08-01T05:08:54;98304.91;;;19.69;61.53
72855;BME280;60991;51.278;22.550;2023-08-01T05:10:24;98299.69;;;19.73;61.58
72855;BME280;60991;51.278;22.550;2023-08-01T05:11:55;98308.22;;;19.75;61.73
72855;BME280;60991;51.278;22.550;2023-08-01T05:13:25;98299.19;;;19.80;61.48
72855;BME280;60991;51.278;22.550;2023-08-01T05:14:55;98296.81;;;19.78;61.61
72855;BME280;60991;51.278;22.550;2023-08-01T05:16:25;98300.44;;;19.82;61.42
72855;BME280;60991;51.278;22.550;2023-08-01T05:17:55;98297.88;;;19.86;61.02
72855;BME280;60991;51.278;22.550;2023-08-01T05:19:26;98304.88;;;19.78;61.56
72855;BME280;60991;51.278;22.550;2023-08-01T05:20:56;98295.84;;;19.83;61.59
72855;BME280;60991;51.278;22.550;2023-08-01T05:22:26;98299.13;;;19.88;61.43
72855;BME280;60991;51.278;22.550;2023-08-01T05:23:56;98294.84;;;19.87;61.68
72855;BME280;60991;51.278;22.550;2023-08-01T05:25:27;98299.41;;;19.95;61.68
72855;BME280;60991;51.278;22.550;2023-08-01T05:26:57;98300.34;;;19.99;61.90
72855;BME280;60991;51.278;22.550;2023-08-01T05:28:27;98304.47;;;19.97;61.43
72855;BME280;60991;51.278;22.550;2023-08-01T05:29:58;98303.22;;;19.94;61.98
72855;BME280;60991;51.278;22.550;2023-08-01T05:31:28;98304.34;;;19.93;61.87
72855;BME280;60991;51.278;22.550;2023-08-01T05:32:58;98291.16;;;20.00;61.56
72855;BME280;60991;51.278;22.550;2023-08-01T05:34:29;98299.81;;;20.06;61.73
72855;BME280;60991;51.278;22.550;2023-08-01T05:35:59;98300.59;;;20.06;61.88
72855;BME280;60991;51.278;22.550;2023-08-01T05:37:29;98298.66;;;20.16;61.38
72855;BME280;60991;51.278;22.550;2023-08-01T05:38:59;98298.16;;;20.22;61.31
72855;BME280;60991;51.278;22.550;2023-08-01T05:40:29;98298.91;;;20.23;61.35
72855;BME280;60991;51.278;22.550;2023-08-01T05:42:00;98300.00;;;20.30;61.11
72855;BME280;60991;51.278;22.550;2023-08-01T05:43:30;98292.03;;;20.34;60.94
72855;BME280;60991;51.278;22.550;2023-08-01T05:45:00;98294.75;;;20.34;60.96
72855;BME280;60991;51.278;22.550;2023-08-01T05:46:30;98295.22;;;20.36;61.09
72855;BME280;60991;51.278;22.550;2023-08-01T05:48:01;98295.81;;;20.42;61.01
72855;BME280;60991;51.278;22.550;2023-08-01T05:49:31;98298.13;;;20.52;60.69
72855;BME280;60991;51.278;22.550;2023-08-01T05:51:02;98300.50;;;20.53;60.36
72855;BME280;60991;51.278;22.550;2023-08-01T05:52:33;98284.78;;;20.55;60.26
72855;BME280;60991;51.278;22.550;2023-08-01T05:54:03;98294.25;;;20.61;60.36
72855;BME280;60991;51.278;22.550;2023-08-01T05:55:33;98292.09;;;20.76;60.18
72855;BME280;60991;51.278;22.550;2023-08-01T05:57:05;98295.81;;;20.83;59.82
72855;BME280;60991;51.278;22.550;2023-08-01T05:58:35;98292.44;;;20.86;59.48
72855;BME280;60991;51.278;22.550;2023-08-01T06:00:06;98283.97;;;20.96;59.47
72855;BME280;60991;51.278;22.550;2023-08-01T06:01:36;98286.88;;;21.03;58.74
72855;BME280;60991;51.278;22.550;2023-08-01T06:03:07;98286.44;;;21.01;58.80
72855;BME280;60991;51.278;22.550;2023-08-01T06:04:37;98290.50;;;21.07;59.31
72855;BME280;60991;51.278;22.550;2023-08-01T06:06:07;98286.16;;;21.15;59.42
72855;BME280;60991;51.278;22.550;2023-08-01T06:07:37;98278.09;;;21.27;58.77
72855;BME280;60991;51.278;22.550;2023-08-01T06:09:07;98283.50;;;21.27;58.24
72855;BME280;60991;51.278;22.550;2023-08-01T06:10:38;98282.72;;;21.27;58.30
72855;BME280;60991;51.278;22.550;2023-08-01T06:12:08;98276.00;;;21.33;58.15
72855;BME280;60991;51.278;22.550;2023-08-01T06:13:38;98276.06;;;21.36;58.29
72855;BME280;60991;51.278;22.550;2023-08-01T06:15:09;98281.53;;;21.49;58.53
72855;BME280;60991;51.278;22.550;2023-08-01T06:16:39;98274.75;;;21.55;58.37
72855;BME280;60991;51.278;22.550;2023-08-01T06:18:09;98277.56;;;21.58;58.26
72855;BME280;60991;51.278;22.550;2023-08-01T06:19:39;98284.22;;;21.61;57.85
72855;BME280;60991;51.278;22.550;2023-08-01T06:21:10;98280.97;;;21.67;58.13
72855;BME280;60991;51.278;22.550;2023-08-01T06:22:41;98281.53;;;21.73;58.00
72855;BME280;60991;51.278;22.550;2023-08-01T06:24:11;98280.97;;;21.80;57.05
72855;BME280;60991;51.278;22.550;2023-08-01T06:25:42;98273.97;;;21.78;57.32
72855;BME280;60991;51.278;22.550;2023-08-01T06:27:12;98271.06;;;21.84;56.61
72855;BME280;60991;51.278;22.550;2023-08-01T06:28:42;98271.53;;;21.86;56.58
72855;BME280;60991;51.278;22.550;2023-08-01T06:30:12;98268.56;;;21.91;56.90
72855;BME280;60991;51.278;22.550;2023-08-01T06:31:43;98264.66;;;22.00;56.07
72855;BME280;60991;51.278;22.550;2023-08-01T06:33:13;98268.00;;;22.09;55.86
72855;BME280;60991;51.278;22.550;2023-08-01T06:34:44;98265.88;;;22.15;56.09
72855;BME280;60991;51.278;22.550;2023-08-01T06:36:14;98264.75;;;22.16;56.23
72855;BME280;60991;51.278;22.550;2023-08-01T06:37:44;98261.47;;;22.23;55.72
72855;BME280;60991;51.278;22.550;2023-08-01T06:39:14;98265.75;;;22.24;55.00
72855;BME280;60991;51.278;22.550;2023-08-01T06:40:44;98256.59;;;22.28;54.42
72855;BME280;60991;51.278;22.550;2023-08-01T06:42:15;98256.38;;;22.33;54.86
72855;BME280;60991;51.278;22.550;2023-08-01T06:43:45;98255.69;;;22.36;55.10
72855;BME280;60991;51.278;22.550;2023-08-01T06:45:15;98259.03;;;22.45;54.81
72855;BME280;60991;51.278;22.550;2023-08-01T06:46:45;98253.41;;;22.51;54.38
72855;BME280;60991;51.278;22.550;2023-08-01T06:48:15;98253.41;;;22.51;53.96
72855;BME280;60991;51.278;22.550;2023-08-01T06:49:46;98241.09;;;22.53;54.38
72855;BME280;60991;51.278;22.550;2023-08-01T06:51:16;98250.22;;;22.61;54.52
72855;BME280;60991;51.278;22.550;2023-08-01T06:52:46;98239.22;;;22.69;53.80
72855;BME280;60991;51.278;22.550;2023-08-01T06:54:16;98234.28;;;22.71;53.74
72855;BME280;60991;51.278;22.550;2023-08-01T06:55:46;98237.56;;;22.77;53.43
72855;BME280;60991;51.278;22.550;2023-08-01T06:57:17;98230.31;;;22.81;52.84
72855;BME280;60991;51.278;22.550;2023-08-01T06:58:47;98231.19;;;22.85;51.47
72855;BME280;60991;51.278;22.550;2023-08-01T07:00:17;98229.72;;;22.88;51.97
72855;BME280;60991;51.278;22.550;2023-08-01T07:01:47;98226.31;;;22.91;51.61
72855;BME280;60991;51.278;22.550;2023-08-01T07:03:18;98228.00;;;22.95;51.60
72855;BME280;60991;51.278;22.550;2023-08-01T07:04:48;98234.69;;;23.01;51.67
72855;BME280;60991;51.278;22.550;2023-08-01T07:06:18;98222.66;;;22.99;50.53
72855;BME280;60991;51.278;22.550;2023-08-01T07:07:48;98231.47;;;22.96;51.03
72855;BME280;60991;51.278;22.550;2023-08-01T07:09:19;98226.50;;;22.98;50.51
72855;BME280;60991;51.278;22.550;2023-08-01T07:10:49;98237.06;;;23.03;51.46
72855;BME280;60991;51.278;22.550;2023-08-01T07:12:19;98227.81;;;23.04;51.22
72855;BME280;60991;51.278;22.550;2023-08-01T07:13:49;98224.41;;;23.07;50.19
72855;BME280;60991;51.278;22.550;2023-08-01T07:15:19;98232.19;;;23.08;50.21
72855;BME280;60991;51.278;22.550;2023-08-01T07:16:50;98228.78;;;23.11;50.63
72855;BME280;60991;51.278;22.550;2023-08-01T07:18:20;98235.94;;;23.20;50.57
72855;BME280;60991;51.278;22.550;2023-08-01T07:19:50;98231.84;;;23.26;50.50
72855;BME280;60991;51.278;22.550;2023-08-01T07:21:20;98235.44;;;23.30;50.31
72855;BME280;60991;51.278;22.550;2023-08-01T07:22:51;98223.22;;;23.36;50.04
72855;BME280;60991;51.278;22.550;2023-08-01T07:24:21;98220.84;;;23.50;49.80
72855;BME280;60991;51.278;22.550;2023-08-01T07:25:51;98227.06;;;23.51;49.09
72855;BME280;60991;51.278;22.550;2023-08-01T07:27:21;98219.72;;;23.51;49.29
72855;BME280;60991;51.278;22.550;2023-08-01T07:28:52;98219.84;;;23.55;48.65
72855;BME280;60991;51.278;22.550;2023-08-01T07:30:22;98215.63;;;23.57;48.63
72855;BME280;60991;51.278;22.550;2023-08-01T07:31:52;98222.25;;;23.60;48.93
72855;BME280;60991;51.278;22.550;2023-08-01T07:33:22;98212.19;;;23.60;48.03
72855;BME280;60991;51.278;22.550;2023-08-01T07:34:52;98215.34;;;23.62;48.21
72855;BME280;60991;51.278;22.550;2023-08-01T07:36:23;98213.88;;;23.65;47.89
72855;BME280;60991;51.278;22.550;2023-08-01T07:37:53;98213.16;;;23.68;47.58
72855;BME280;60991;51.278;22.550;2023-08-01T07:39:24;98206.69;;;23.72;47.83
72855;BME280;60991;51.278;22.550;2023-08-01T07:40:54;98218.81;;;23.78;47.80
72855;BME280;60991;51.278;22.550;2023-08-01T07:42:25;98219.06;;;23.89;47.26
72855;BME280;60991;51.278;22.550;2023-08-01T07:43:55;98212.50;;;23.90;47.43
72855;BME280;60991;51.278;22.550;2023-08-01T07:45:25;98204.16;;;23.99;48.01
72855;BME280;60991;51.278;22.550;2023-08-01T07:46:56;98209.19;;;24.16;48.19
72855;BME280;60991;51.278;22.550;2023-08-01T07:48:27;98209.63;;;24.18;48.08
72855;BME280;60991;51.278;22.550;2023-08-01T07:49:57;98209.34;;;24.23;47.89
72855;BME280;60991;51.278;22.550;2023-08-01T07:51:27;98199.59;;;24.38;47.31
72855;BME280;60991;51.278;22.550;2023-08-01T07:52:57;98195.38;;;24.40;47.37